createdAt,value
2023-05-18T00:01:39.104Z,12.80
2023-05-18T00:04:24.709Z,12.80
2023-05-18T00:07:10.152Z,12.70
2023-05-18T00:09:55.791Z,12.60
2023-05-18T00:12:41.589Z,12.50
2023-05-18T00:15:27.077Z,12.50
2023-05-18T00:18:13.089Z,12.50
2023-05-18T00:20:58.560Z,12.40
2023-05-18T00:23:44.296Z,12.40
2023-05-18T00:26:30.081Z,12.40
2023-05-18T00:29:16.126Z,12.30
2023-05-18T00:32:01.963Z,12.20
2023-05-18T00:34:47.376Z,12.30
2023-05-18T00:37:32.683Z,12.20
2023-05-18T00:40:18.312Z,12.20
2023-05-18T00:43:03.738Z,12.20
2023-05-18T00:45:49.249Z,12.10
2023-05-18T00:48:34.735Z,12.00
2023-05-18T00:51:22.144Z,12.00
2023-05-18T00:54:07.518Z,11.90
2023-05-18T00:56:53.613Z,11.90
2023-05-18T00:59:40.201Z,11.90
2023-05-18T01:02:26.197Z,11.80
2023-05-18T01:05:12.839Z,11.70
2023-05-18T01:07:58.143Z,11.70
2023-05-18T01:10:45.373Z,11.70
2023-05-18T01:14:04.192Z,11.70
2023-05-18T01:17:54.518Z,11.60
2023-05-18T01:21:16.795Z,11.50
2023-05-18T01:24:42.137Z,11.50
2023-05-18T01:27:28.088Z,11.40
2023-05-18T01:30:16.763Z,11.30
2023-05-18T01:33:10.515Z,11.30
2023-05-18T01:35:55.865Z,11.20
2023-05-18T01:38:43.921Z,11.20
2023-05-18T01:41:32.397Z,11.20
2023-05-18T01:44:31.268Z,11.30
2023-05-18T01:47:18.100Z,11.30
2023-05-18T01:50:27.234Z,11.20
2023-05-18T01:53:45.332Z,11.30
2023-05-18T01:56:32.386Z,11.30
2023-05-18T01:59:18.550Z,11.30
2023-05-18T02:02:05.421Z,11.40
2023-05-18T02:04:51.291Z,11.50
2023-05-18T02:07:36.830Z,11.50
2023-05-18T02:10:22.263Z,11.60
2023-05-18T02:13:07.728Z,11.60
2023-05-18T02:15:53.110Z,11.70
2023-05-18T02:18:38.911Z,11.70
2023-05-18T02:21:24.870Z,11.70
2023-05-18T02:24:10.245Z,11.80
2023-05-18T02:26:55.620Z,11.80
2023-05-18T02:29:41.181Z,11.90
2023-05-18T02:32:26.657Z,11.90
2023-05-18T02:35:12.226Z,12.00
2023-05-18T02:37:57.654Z,12.00
2023-05-18T02:40:43.111Z,12.10
2023-05-18T02:43:28.879Z,12.10
2023-05-18T02:46:14.327Z,12.10
2023-05-18T02:49:00.516Z,12.20
2023-05-18T02:51:46.160Z,12.20
2023-05-18T02:54:32.190Z,12.20
2023-05-18T02:57:17.680Z,12.30
2023-05-18T03:00:03.372Z,12.20
2023-05-18T03:02:49.114Z,12.30
2023-05-18T03:05:34.831Z,12.30
2023-05-18T03:08:21.755Z,12.40
2023-05-18T03:11:07.577Z,12.40
2023-05-18T03:13:53.119Z,12.50
2023-05-18T03:16:39.031Z,12.50
2023-05-18T03:19:25.104Z,12.60
2023-05-18T03:22:10.407Z,12.60
2023-05-18T03:24:55.717Z,12.60
2023-05-18T03:27:41.168Z,12.70
2023-05-18T03:30:26.499Z,12.70
2023-05-18T03:33:12.162Z,12.70
2023-05-18T03:36:03.012Z,12.80
2023-05-18T03:38:48.497Z,12.90
2023-05-18T03:41:34.063Z,13.00
2023-05-18T03:44:19.301Z,13.10
2023-05-18T03:47:05.177Z,13.10
2023-05-18T03:49:54.055Z,13.20
2023-05-18T03:52:44.298Z,13.20
2023-05-18T03:55:33.729Z,13.30
2023-05-18T03:58:19.866Z,13.40
2023-05-18T04:01:06.646Z,13.60
2023-05-18T04:03:53.385Z,13.60
2023-05-18T04:06:39.374Z,13.80
2023-05-18T04:09:25.380Z,14.00
2023-05-18T04:12:15.341Z,14.10
2023-05-18T04:15:01.608Z,14.30
2023-05-18T04:17:51.229Z,14.40
2023-05-18T04:20:37.584Z,14.70
2023-05-18T04:23:26.217Z,15.10
2023-05-18T04:26:12.342Z,15.60
2023-05-18T04:29:01.485Z,16.10
2023-05-18T04:31:47.605Z,16.20
2023-05-18T04:34:34.197Z,16.30
2023-05-18T04:37:23.342Z,16.70
2023-05-18T04:40:14.765Z,17.00
2023-05-18T04:43:01.249Z,17.00
2023-05-18T04:45:47.041Z,17.10
2023-05-18T04:48:32.624Z,17.30
2023-05-18T04:51:18.176Z,18.20
2023-05-18T04:54:03.807Z,19.30
2023-05-18T04:56:50.816Z,20.00
2023-05-18T04:59:36.568Z,20.30
2023-05-18T05:02:22.507Z,20.10
2023-05-18T05:05:09.144Z,19.70
2023-05-18T05:07:55.581Z,19.40
2023-05-18T05:10:41.540Z,19.30
2023-05-18T05:13:29.292Z,19.30
2023-05-18T05:16:17.839Z,19.30
2023-05-18T05:19:07.677Z,19.50
2023-05-18T05:21:54.640Z,19.70
2023-05-18T05:24:40.376Z,20.00
2023-05-18T05:27:42.027Z,20.30
2023-05-18T05:30:35.204Z,20.50
2023-05-18T05:33:24.698Z,20.60
2023-05-18T05:36:10.705Z,20.70
2023-05-18T05:39:02.568Z,20.70
2023-05-18T05:41:49.313Z,20.80
2023-05-18T05:44:51.104Z,20.80
2023-05-18T05:47:41.125Z,20.90
2023-05-18T05:50:32.116Z,21.00
2023-05-18T05:53:18.807Z,21.10
2023-05-18T05:56:04.916Z,21.20
2023-05-18T05:58:51.269Z,21.40
2023-05-18T06:01:37.228Z,21.50
2023-05-18T06:04:29.104Z,21.60
2023-05-18T06:07:14.961Z,21.70
2023-05-18T06:10:01.241Z,21.80
2023-05-18T06:12:46.659Z,21.90
2023-05-18T06:15:32.263Z,22.00
2023-05-18T06:18:18.823Z,22.10
2023-05-18T06:21:04.544Z,22.20
2023-05-18T06:23:50.648Z,22.30
2023-05-18T06:26:36.044Z,22.40
2023-05-18T06:29:24.768Z,22.40
2023-05-18T06:32:12.943Z,22.50
2023-05-18T06:34:58.412Z,22.60
2023-05-18T06:37:46.110Z,22.60
2023-05-18T06:40:32.122Z,22.70
2023-05-18T06:43:17.643Z,22.80
2023-05-18T06:46:03.042Z,22.90
2023-05-18T06:48:48.953Z,23.00
2023-05-18T06:51:34.363Z,23.00
2023-05-18T06:54:19.769Z,23.20
2023-05-18T06:57:05.824Z,23.20
2023-05-18T06:59:51.522Z,23.30
2023-05-18T07:02:36.998Z,23.40
2023-05-18T07:05:23.944Z,23.40
2023-05-18T07:08:09.380Z,23.50
2023-05-18T07:10:54.877Z,23.70
2023-05-18T07:13:40.139Z,23.70
2023-05-18T07:16:27.634Z,23.70
2023-05-18T07:19:13.762Z,23.80
2023-05-18T07:21:59.351Z,23.80
2023-05-18T07:24:44.960Z,23.90
2023-05-18T07:27:30.341Z,23.90
2023-05-18T07:30:15.725Z,23.80
2023-05-18T07:33:01.247Z,23.70
2023-05-18T07:35:47.179Z,23.80
2023-05-18T07:38:32.611Z,23.80
2023-05-18T07:41:17.962Z,23.80
2023-05-18T07:44:03.601Z,23.80
2023-05-18T07:46:49.316Z,23.90
2023-05-18T07:49:35.179Z,24.00
2023-05-18T07:52:20.670Z,24.10
2023-05-18T07:55:07.079Z,24.10
2023-05-18T07:57:52.740Z,24.10
2023-05-18T08:00:38.899Z,24.30
2023-05-18T08:03:24.336Z,24.40
2023-05-18T08:06:10.240Z,24.40
2023-05-18T08:08:55.644Z,24.50
2023-05-18T08:11:41.948Z,24.50
2023-05-18T08:14:27.604Z,24.50
2023-05-18T08:17:13.166Z,24.50
2023-05-18T08:19:58.987Z,24.40
2023-05-18T08:22:44.433Z,24.50
2023-05-18T08:25:29.988Z,24.80
2023-05-18T08:28:16.476Z,25.00
2023-05-18T08:31:01.814Z,25.10
2023-05-18T08:33:48.235Z,25.00
2023-05-18T08:36:35.888Z,25.10
2023-05-18T08:39:21.406Z,25.30
2023-05-18T08:42:49.860Z,25.20
2023-05-18T08:45:52.463Z,25.30
2023-05-18T08:48:38.355Z,25.30
2023-05-18T08:51:27.095Z,25.20
2023-05-18T08:54:20.996Z,25.10
2023-05-18T08:57:09.317Z,25.10
2023-05-18T08:59:56.631Z,25.10
2023-05-18T09:02:43.303Z,25.50
2023-05-18T09:05:28.815Z,25.60
2023-05-18T09:08:14.789Z,25.70
2023-05-18T09:11:03.423Z,25.90
2023-05-18T09:13:49.708Z,26.10
2023-05-18T09:16:35.519Z,26.20
2023-05-18T09:19:21.404Z,26.20
2023-05-18T09:22:07.523Z,26.30
2023-05-18T09:24:53.160Z,26.20
2023-05-18T09:27:39.509Z,26.40
2023-05-18T09:30:26.832Z,26.60
2023-05-18T09:33:20.924Z,26.70
2023-05-18T09:36:08.995Z,26.60
2023-05-18T09:38:54.743Z,26.60
2023-05-18T09:41:41.505Z,26.80
2023-05-18T09:44:35.000Z,27.10
2023-05-18T09:47:21.007Z,27.30
2023-05-18T09:50:08.101Z,27.40
2023-05-18T09:52:54.331Z,27.50
2023-05-18T09:55:50.235Z,27.70
2023-05-18T09:58:35.700Z,27.80
2023-05-18T10:01:21.098Z,27.80
2023-05-18T10:04:07.251Z,27.90
2023-05-18T10:06:53.214Z,28.20
2023-05-18T10:09:45.503Z,28.30
2023-05-18T10:12:31.270Z,28.50
2023-05-18T10:15:22.177Z,28.70
2023-05-18T10:18:08.037Z,28.90
2023-05-18T10:21:00.342Z,29.10
2023-05-18T10:23:49.977Z,29.20
2023-05-18T10:26:41.750Z,29.40
2023-05-18T10:29:29.649Z,29.30
2023-05-18T10:32:17.987Z,29.30
2023-05-18T10:35:05.026Z,29.70
2023-05-18T10:37:53.796Z,30.30
2023-05-18T10:40:40.855Z,31.90
2023-05-18T10:43:28.495Z,33.50
2023-05-18T10:46:15.092Z,34.50
2023-05-18T10:49:03.851Z,35.50
2023-05-18T10:51:53.235Z,36.40
2023-05-18T10:54:40.487Z,37.30
2023-05-18T10:57:34.004Z,37.80
2023-05-18T11:00:20.083Z,38.30
2023-05-18T11:03:14.180Z,38.80
2023-05-18T11:06:10.639Z,39.30
2023-05-18T11:08:56.762Z,39.30
2023-05-18T11:12:00.174Z,39.70
2023-05-18T11:14:54.972Z,40.10
2023-05-18T11:17:40.516Z,40.30
2023-05-18T11:20:26.304Z,40.40
2023-05-18T11:23:12.578Z,41.00
2023-05-18T11:26:03.331Z,41.00
2023-05-18T11:28:52.709Z,40.60
2023-05-18T11:31:55.384Z,40.80
2023-05-18T11:34:46.894Z,40.90
2023-05-18T11:37:38.884Z,41.20
2023-05-18T11:40:48.951Z,41.10
2023-05-18T11:43:34.784Z,41.40
2023-05-18T11:46:21.745Z,41.80
2023-05-18T11:49:14.293Z,42.00
2023-05-18T11:52:12.162Z,41.50
2023-05-18T11:55:00.304Z,41.40
2023-05-18T11:57:51.378Z,41.40
2023-05-18T12:00:38.070Z,41.30
2023-05-18T12:03:27.215Z,42.10
2023-05-18T12:06:13.582Z,42.60
2023-05-18T12:09:00.825Z,43.10
2023-05-18T12:11:46.847Z,43.40
2023-05-18T12:14:35.302Z,44.00
2023-05-18T12:17:20.980Z,44.10
2023-05-18T12:20:10.338Z,44.10
2023-05-18T12:22:56.428Z,44.50
2023-05-18T12:25:42.282Z,44.90
2023-05-18T12:28:29.099Z,45.40
2023-05-18T12:31:14.514Z,45.10
2023-05-18T12:34:02.313Z,45.30
2023-05-18T12:36:54.805Z,45.60
2023-05-18T12:39:40.586Z,44.90
2023-05-18T12:42:26.243Z,45.10
2023-05-18T12:45:11.941Z,45.10
2023-05-18T12:48:10.601Z,45.10
2023-05-18T12:50:56.335Z,45.40
2023-05-18T12:53:42.746Z,45.40
2023-05-18T12:56:28.704Z,45.70
2023-05-18T12:59:19.051Z,46.20
2023-05-18T13:02:05.084Z,45.70
2023-05-18T13:05:05.456Z,45.70
2023-05-18T13:07:56.488Z,45.70
2023-05-18T13:10:44.457Z,45.60
2023-05-18T13:13:30.170Z,46.10
2023-05-18T13:16:18.693Z,45.60
2023-05-18T13:19:10.735Z,44.60
2023-05-18T13:21:57.962Z,43.90
2023-05-18T13:24:44.218Z,43.70
2023-05-18T13:27:30.241Z,43.50
2023-05-18T13:30:17.953Z,42.90
2023-05-18T13:33:06.214Z,42.90
2023-05-18T13:35:51.880Z,42.70
2023-05-18T13:38:37.728Z,42.30
2023-05-18T13:41:23.252Z,41.30
2023-05-18T13:44:08.711Z,40.60
2023-05-18T13:46:54.298Z,39.50
2023-05-18T13:49:39.747Z,38.40
2023-05-18T13:52:25.303Z,37.70
2023-05-18T13:55:12.434Z,36.90
2023-05-18T13:57:58.289Z,36.20
2023-05-18T14:00:44.714Z,35.10
2023-05-18T14:03:30.365Z,34.10
2023-05-18T14:06:16.376Z,33.60
2023-05-18T14:09:02.253Z,33.20
2023-05-18T14:11:48.308Z,33.00
2023-05-18T14:14:33.912Z,32.80
2023-05-18T14:17:19.280Z,32.50
2023-05-18T14:20:06.248Z,32.10
2023-05-18T14:22:55.250Z,31.90
2023-05-18T14:25:40.743Z,31.50
2023-05-18T14:28:26.060Z,30.90
2023-05-18T14:31:11.683Z,30.70
2023-05-18T14:33:57.061Z,30.50
2023-05-18T14:36:42.591Z,30.20
2023-05-18T14:39:27.963Z,29.90
2023-05-18T14:42:13.428Z,29.50
2023-05-18T14:44:58.930Z,29.20
2023-05-18T14:47:44.178Z,29.00
2023-05-18T14:50:29.904Z,28.90
2023-05-18T14:53:15.626Z,28.70
2023-05-18T14:56:01.269Z,28.60
2023-05-18T14:58:47.205Z,28.40
2023-05-18T15:01:32.900Z,28.30
2023-05-18T15:04:18.316Z,28.10
2023-05-18T15:07:03.864Z,27.90
2023-05-18T15:09:49.561Z,27.70
2023-05-18T15:12:34.889Z,27.50
2023-05-18T15:15:20.309Z,27.50
2023-05-18T15:18:05.837Z,27.40
2023-05-18T15:20:51.196Z,27.40
2023-05-18T15:23:36.573Z,27.40
2023-05-18T15:26:22.416Z,27.20
2023-05-18T15:29:08.050Z,27.10
2023-05-18T15:31:53.497Z,27.00
2023-05-18T15:34:38.846Z,26.80
2023-05-18T15:37:24.360Z,26.70
2023-05-18T15:40:09.973Z,26.60
2023-05-18T15:42:55.995Z,26.50
2023-05-18T15:45:41.626Z,26.40
2023-05-18T15:48:27.541Z,26.20
2023-05-18T15:51:13.083Z,26.10
2023-05-18T15:53:58.405Z,26.00
2023-05-18T15:56:43.940Z,25.90
2023-05-18T15:59:29.459Z,25.80
2023-05-18T16:02:15.732Z,25.60
2023-05-18T16:05:01.460Z,25.50
2023-05-18T16:07:47.541Z,25.40
2023-05-18T16:10:33.625Z,25.40
2023-05-18T16:13:19.313Z,25.30
2023-05-18T16:16:05.142Z,25.20
2023-05-18T16:18:51.156Z,25.10
2023-05-18T16:21:37.058Z,25.10
2023-05-18T16:24:22.509Z,25.00
2023-05-18T16:27:08.057Z,24.90
2023-05-18T16:29:53.511Z,24.80
2023-05-18T16:32:38.966Z,24.80
2023-05-18T16:35:25.058Z,24.70
2023-05-18T16:38:10.472Z,24.50
2023-05-18T16:40:56.027Z,24.50
2023-05-18T16:43:41.533Z,24.40
2023-05-18T16:46:27.670Z,24.30
2023-05-18T16:49:13.493Z,24.20
2023-05-18T16:51:58.887Z,24.00
2023-05-18T16:54:46.089Z,23.90
2023-05-18T16:57:31.421Z,23.80
2023-05-18T17:00:17.732Z,23.70
2023-05-18T17:03:04.424Z,23.60
2023-05-18T17:05:53.027Z,23.40
2023-05-18T17:08:38.357Z,23.20
2023-05-18T17:11:26.012Z,23.10
2023-05-18T17:14:11.476Z,23.00
2023-05-18T17:16:56.832Z,22.80
2023-05-18T17:19:42.341Z,22.70
2023-05-18T17:22:27.910Z,22.50
2023-05-18T17:25:14.029Z,22.40
2023-05-18T17:27:59.655Z,22.30
2023-05-18T17:30:45.310Z,22.20
2023-05-18T17:33:31.238Z,22.10
2023-05-18T17:36:16.754Z,22.00
2023-05-18T17:39:02.282Z,21.80
2023-05-18T17:41:47.598Z,21.70
2023-05-18T17:44:33.069Z,21.60
2023-05-18T17:47:18.728Z,21.50
2023-05-18T17:50:04.699Z,21.40
2023-05-18T17:52:50.679Z,21.30
2023-05-18T17:55:36.953Z,21.10
2023-05-18T17:58:22.321Z,21.00
2023-05-18T18:01:09.695Z,20.80
2023-05-18T18:03:56.940Z,20.70
2023-05-18T18:06:42.398Z,20.60
2023-05-18T18:09:28.008Z,20.50
2023-05-18T18:12:13.860Z,20.40
2023-05-18T18:14:59.408Z,20.30
2023-05-18T18:17:45.362Z,20.20
2023-05-18T18:20:30.972Z,20.00
2023-05-18T18:23:16.789Z,19.90
2023-05-18T18:26:03.434Z,19.80
2023-05-18T18:28:49.972Z,19.70
2023-05-18T18:31:35.948Z,19.70
2023-05-18T18:34:21.665Z,19.60
2023-05-18T18:37:07.219Z,19.50
2023-05-18T18:39:52.798Z,19.40
2023-05-18T18:42:38.514Z,19.30
2023-05-18T18:45:24.502Z,19.20
2023-05-18T18:48:10.211Z,19.10
2023-05-18T18:50:56.818Z,19.00
2023-05-18T18:53:42.423Z,18.90
2023-05-18T18:56:27.812Z,18.90
2023-05-18T18:59:13.428Z,18.80
2023-05-18T19:02:02.960Z,18.70
2023-05-18T19:04:48.971Z,18.70
2023-05-18T19:07:36.500Z,18.60
2023-05-18T19:10:23.585Z,18.50
2023-05-18T19:13:09.633Z,18.40
2023-05-18T19:15:56.133Z,18.30
2023-05-18T19:18:41.636Z,18.30
2023-05-18T19:21:26.980Z,18.20
2023-05-18T19:24:12.802Z,18.10
2023-05-18T19:26:58.733Z,18.10
2023-05-18T19:29:44.404Z,18.00
2023-05-18T19:32:30.046Z,17.90
2023-05-18T19:35:16.913Z,17.90
2023-05-18T19:38:04.555Z,17.80
2023-05-18T19:40:50.050Z,17.80
2023-05-18T19:43:35.436Z,17.70
2023-05-18T19:46:21.266Z,17.70
2023-05-18T19:49:06.640Z,17.60
2023-05-18T19:51:56.095Z,17.50
2023-05-18T19:54:41.684Z,17.50
2023-05-18T19:57:26.946Z,17.40
2023-05-18T20:00:16.024Z,17.40
2023-05-18T20:03:02.557Z,17.40
2023-05-18T20:05:48.278Z,17.30
2023-05-18T20:08:33.955Z,17.30
2023-05-18T20:11:20.308Z,17.20
2023-05-18T20:14:05.918Z,17.20
2023-05-18T20:16:51.982Z,17.10
2023-05-18T20:19:37.903Z,17.10
2023-05-18T20:22:23.694Z,17.10
2023-05-18T20:25:09.265Z,17.00
2023-05-18T20:27:55.185Z,17.00
2023-05-18T20:30:41.236Z,16.90
2023-05-18T20:33:26.591Z,16.90
2023-05-18T20:36:11.909Z,16.80
2023-05-18T20:38:57.480Z,16.80
2023-05-18T20:41:42.827Z,16.80
2023-05-18T20:44:28.107Z,16.80
2023-05-18T20:47:13.489Z,16.80
2023-05-18T20:49:59.461Z,16.80
2023-05-18T20:52:46.561Z,16.70
2023-05-18T20:55:35.975Z,16.70
2023-05-18T20:58:21.697Z,16.60
2023-05-18T21:01:07.767Z,16.60
2023-05-18T21:03:53.719Z,16.60
2023-05-18T21:06:39.820Z,16.60
2023-05-18T21:09:25.557Z,16.60
2023-05-18T21:12:10.950Z,16.60
2023-05-18T21:14:56.803Z,16.60
2023-05-18T21:17:42.482Z,16.60
2023-05-18T21:20:28.111Z,16.60
2023-05-18T21:23:13.743Z,16.60
2023-05-18T21:25:59.268Z,16.60
2023-05-18T21:28:44.857Z,16.60
2023-05-18T21:31:30.478Z,16.60
2023-05-18T21:34:15.786Z,16.60
2023-05-18T21:37:01.594Z,16.60
2023-05-18T21:39:47.012Z,16.60
2023-05-18T21:42:32.362Z,16.70
2023-05-18T21:45:17.932Z,16.70
2023-05-18T21:48:03.441Z,16.70
2023-05-18T21:50:49.269Z,16.80
2023-05-18T21:53:34.590Z,16.80
2023-05-18T21:56:20.197Z,16.80
2023-05-18T21:59:05.781Z,16.80
2023-05-18T22:01:51.252Z,16.80
2023-05-18T22:04:38.107Z,16.90
2023-05-18T22:07:23.560Z,16.90
2023-05-18T22:10:09.418Z,16.90
2023-05-18T22:12:55.103Z,16.90
2023-05-18T22:15:41.133Z,16.90
2023-05-18T22:18:26.602Z,16.90
2023-05-18T22:21:12.030Z,16.90
2023-05-18T22:23:57.484Z,16.90
2023-05-18T22:26:43.616Z,16.90
2023-05-18T22:29:29.187Z,16.90
2023-05-18T22:32:14.732Z,16.90
2023-05-18T22:35:01.710Z,16.90
2023-05-18T22:37:47.317Z,16.90
2023-05-18T22:40:33.068Z,16.90
2023-05-18T22:43:27.880Z,16.90
2023-05-18T22:46:14.583Z,16.90
2023-05-18T22:49:00.170Z,16.90
2023-05-18T22:51:46.689Z,16.90
2023-05-18T22:54:32.199Z,16.90
2023-05-18T22:57:17.676Z,16.90
2023-05-18T23:00:03.406Z,16.90
2023-05-18T23:02:49.415Z,16.80
2023-05-18T23:05:35.466Z,16.90
2023-05-18T23:08:21.415Z,16.90
2023-05-18T23:11:06.779Z,16.80
2023-05-18T23:13:52.310Z,16.90
2023-05-18T23:16:38.408Z,16.80
2023-05-18T23:19:24.802Z,16.90
2023-05-18T23:22:10.770Z,16.80
2023-05-18T23:24:56.363Z,16.80
2023-05-18T23:27:42.306Z,16.80
2023-05-18T23:30:27.875Z,16.80
2023-05-18T23:33:13.815Z,16.80
2023-05-18T23:36:01.155Z,16.80
2023-05-18T23:38:49.003Z,16.80
2023-05-18T23:41:36.064Z,16.80
2023-05-18T23:44:22.018Z,16.80
2023-05-18T23:47:08.237Z,16.80
2023-05-18T23:49:53.968Z,16.80
2023-05-18T23:52:40.670Z,16.80
2023-05-18T23:55:27.716Z,16.80
2023-05-18T23:58:13.791Z,16.80
